createdAt,value
2023-05-18T00:19:09.821Z,2.30
2023-05-18T01:10:17.126Z,2.03
2023-05-18T01:45:17.769Z,2.80
2023-05-18T02:10:38.302Z,3.00
2023-05-18T02:36:40.197Z,2.73
2023-05-18T03:16:32.668Z,2.83
2023-05-18T03:37:08.405Z,2.97
2023-05-18T03:57:28.612Z,3.00
2023-05-18T04:26:47.388Z,2.80
2023-05-18T05:32:38.214Z,2.60
2023-05-18T05:53:08.151Z,2.43
2023-05-18T06:23:15.101Z,1.97
2023-05-18T06:43:51.324Z,1.77
2023-05-18T07:04:22.521Z,1.60
2023-05-18T07:29:37.187Z,1.50
2023-05-18T07:49:30.966Z,1.90
2023-05-18T08:50:47.527Z,1.13
2023-05-18T09:36:30.594Z,1.33
2023-05-18T10:01:30.225Z,1.53
2023-05-18T10:27:12.329Z,1.40
2023-05-18T10:57:35.478Z,1.40
2023-05-18T11:33:12.649Z,1.13
2023-05-18T12:03:28.617Z,0.87
2023-05-18T12:28:21.380Z,1.10
2023-05-18T12:48:58.700Z,0.80
2023-05-18T13:14:10.784Z,0.80
2023-05-18T13:44:22.582Z,1.00
2023-05-18T14:05:08.641Z,1.50
2023-05-18T14:30:29.395Z,0.70
2023-05-18T15:00:28.724Z,1.00
2023-05-18T16:01:24.612Z,1.40
2023-05-18T16:47:34.068Z,1.20
2023-05-18T17:12:50.054Z,1.70
2023-05-18T18:23:42.754Z,3.10
2023-05-18T18:49:17.431Z,2.80
2023-05-18T18:53:41.223Z,3.00
2023-05-18T19:19:47.481Z,4.07
2023-05-18T19:44:49.426Z,3.10
2023-05-18T20:00:17.078Z,3.83
2023-05-18T20:25:35.320Z,3.60
2023-05-18T20:45:53.773Z,2.90
2023-05-18T21:15:49.551Z,2.47
2023-05-18T21:41:38.842Z,3.57
2023-05-18T22:26:45.299Z,3.33
2023-05-18T23:23:07.047Z,4.30
2023-05-18T23:52:55.674Z,3.40
